createdAt,value
2023-05-21T00:03:36.695Z,101098.16
2023-05-21T00:08:38.702Z,101099.69
2023-05-21T00:13:40.751Z,101094.59
2023-05-21T00:18:43.014Z,101089.94
2023-05-21T00:23:45.781Z,101082.13
2023-05-21T00:28:48.230Z,101087.34
2023-05-21T00:33:50.198Z,101087.25
2023-05-21T00:38:52.507Z,101085.56
2023-05-21T00:43:54.632Z,101076.94
2023-05-21T00:48:58.451Z,101086.50
2023-05-21T00:54:01.446Z,101088.22
2023-05-21T00:59:05.963Z,101082.97
2023-05-21T01:04:08.095Z,101079.44
2023-05-21T01:09:10.270Z,101077.78
2023-05-21T01:14:15.242Z,101080.38
2023-05-21T01:19:24.831Z,101079.44
2023-05-21T01:24:26.912Z,101077.78
2023-05-21T01:29:29.337Z,101076.09
2023-05-21T01:34:40.563Z,101068.91
2023-05-21T01:39:48.169Z,101065.19
2023-05-21T01:44:55.472Z,101061.75
2023-05-21T01:49:57.850Z,101063.41
2023-05-21T01:55:00.860Z,101071.41
2023-05-21T02:00:02.917Z,101068.84
2023-05-21T02:05:05.486Z,101058.97
2023-05-21T02:10:08.307Z,101052.97
2023-05-21T02:15:10.489Z,101059.84
2023-05-21T02:20:13.316Z,101044.66
2023-05-21T02:25:18.649Z,101040.47
2023-05-21T02:30:21.174Z,101037.78
2023-05-21T02:35:23.229Z,101045.59
2023-05-21T02:40:25.732Z,101033.28
2023-05-21T02:45:29.205Z,101035.13
2023-05-21T02:50:31.455Z,101030.63
2023-05-21T02:55:33.851Z,101028.81
2023-05-21T03:00:35.939Z,101036.75
2023-05-21T03:05:37.966Z,101026.97
2023-05-21T03:10:40.395Z,101020.00
2023-05-21T03:15:44.345Z,101021.75
2023-05-21T03:20:46.549Z,101008.38
2023-05-21T03:25:48.990Z,101019.16
2023-05-21T03:30:51.512Z,101012.97
2023-05-21T03:35:53.704Z,101013.81
2023-05-21T03:40:55.782Z,101006.72
2023-05-21T03:45:58.099Z,101017.44
2023-05-21T03:51:00.349Z,101020.00
2023-05-21T03:56:02.400Z,101005.88
2023-05-21T04:01:05.149Z,101020.22
2023-05-21T04:06:10.654Z,101028.03
2023-05-21T04:11:13.015Z,101031.69
2023-05-21T04:16:19.618Z,101029.09
2023-05-21T04:21:22.192Z,101035.22
2023-05-21T04:26:25.720Z,101025.34
2023-05-21T04:31:27.984Z,101033.47
2023-05-21T04:36:30.473Z,101044.16
2023-05-21T04:41:34.995Z,101035.28
2023-05-21T04:46:40.341Z,101028.25
2023-05-21T04:51:43.670Z,101034.34
2023-05-21T04:56:49.874Z,101042.25
2023-05-21T05:01:52.982Z,101040.72
2023-05-21T05:06:55.960Z,101031.75
2023-05-21T05:11:58.027Z,101028.25
2023-05-21T05:17:02.880Z,101026.50
2023-05-21T05:22:06.233Z,101029.94
2023-05-21T05:27:12.629Z,101035.50
2023-05-21T05:32:15.732Z,101021.06
2023-05-21T05:37:17.694Z,101019.25
2023-05-21T05:42:24.419Z,101016.78
2023-05-21T05:47:26.829Z,101016.56
2023-05-21T05:52:29.060Z,101033.47
2023-05-21T05:57:33.167Z,101031.00
2023-05-21T06:02:44.455Z,101024.81
2023-05-21T06:07:47.594Z,101030.78
2023-05-21T06:12:50.553Z,101036.34
2023-05-21T06:17:54.189Z,101027.47
2023-05-21T06:22:56.350Z,101016.56
2023-05-21T06:28:02.947Z,101026.34
2023-05-21T06:33:12.005Z,101033.69
2023-05-21T06:38:14.272Z,101024.88
2023-05-21T06:43:16.503Z,101024.69
2023-05-21T06:48:19.069Z,101031.97
2023-05-21T06:53:20.935Z,101035.66
2023-05-21T06:58:23.902Z,101027.56
2023-05-21T07:03:26.970Z,101030.03
2023-05-21T07:08:30.727Z,101039.03
2023-05-21T07:13:33.164Z,101035.59
2023-05-21T07:18:35.213Z,101049.03
2023-05-21T07:23:40.815Z,101044.47
2023-05-21T07:28:43.205Z,101039.03
2023-05-21T07:33:45.534Z,101039.03
2023-05-21T07:38:48.911Z,101035.00
2023-05-21T07:43:52.593Z,101022.59
2023-05-21T07:48:55.372Z,101031.09
2023-05-21T07:53:59.320Z,101017.34
2023-05-21T07:59:03.306Z,101018.31
2023-05-21T08:04:08.572Z,101016.00
2023-05-21T08:09:11.868Z,101011.50
2023-05-21T08:14:20.038Z,101005.50
2023-05-21T08:19:24.794Z,101012.19
2023-05-21T08:24:26.933Z,101013.22
2023-05-21T08:29:30.386Z,101014.72
2023-05-21T08:34:34.758Z,101003.19
2023-05-21T08:39:37.167Z,101005.09
2023-05-21T08:44:45.090Z,101012.47
2023-05-21T08:49:49.591Z,101019.34
2023-05-21T08:54:52.742Z,101008.94
2023-05-21T08:59:55.819Z,101013.28
2023-05-21T09:05:01.220Z,101014.72
2023-05-21T09:10:16.764Z,101016.66
2023-05-21T09:15:19.491Z,101012.91
2023-05-21T09:25:48.105Z,101006.34
2023-05-21T09:30:55.512Z,101003.13
2023-05-21T09:36:00.641Z,101000.91
2023-05-21T09:41:08.747Z,101009.13
2023-05-21T09:46:13.106Z,100998.53
2023-05-21T09:51:31.508Z,101012.91
2023-05-21T09:56:36.680Z,100999.75
2023-05-21T10:01:42.455Z,100992.66
2023-05-21T10:06:49.991Z,100991.81
2023-05-21T10:12:03.884Z,100996.00
2023-05-21T10:17:14.112Z,100982.94
2023-05-21T10:22:24.780Z,100981.00
2023-05-21T10:27:32.495Z,100975.84
2023-05-21T10:32:37.163Z,100972.78
2023-05-21T10:37:45.170Z,100969.34
2023-05-21T10:43:31.300Z,100955.13
2023-05-21T10:48:58.996Z,100942.81
2023-05-21T10:54:56.309Z,100938.38
2023-05-21T11:00:00.793Z,100926.75
2023-05-21T11:10:42.681Z,100928.34
2023-05-21T11:16:08.138Z,100918.06
2023-05-21T11:21:15.637Z,100915.28
2023-05-21T11:26:25.460Z,100916.13
2023-05-21T11:31:43.221Z,100907.81
2023-05-21T11:36:47.297Z,100905.34
2023-05-21T11:42:06.428Z,100897.63
2023-05-21T11:47:33.523Z,100889.47
2023-05-21T11:52:39.785Z,100892.81
2023-05-21T12:08:58.661Z,100881.44
2023-05-21T12:14:05.726Z,100889.78
2023-05-21T12:19:15.458Z,100878.22
2023-05-21T12:24:25.069Z,100882.72
2023-05-21T12:29:44.344Z,100886.16
2023-05-21T12:34:54.972Z,100882.03
2023-05-21T12:40:06.826Z,100880.91
2023-05-21T12:45:15.596Z,100888.13
2023-05-21T12:55:49.620Z,100886.97
2023-05-21T13:00:57.943Z,100889.00
2023-05-21T13:06:07.344Z,100889.47
2023-05-21T13:11:10.948Z,100901.09
2023-05-21T13:21:47.864Z,100891.19
2023-05-21T13:27:01.839Z,100890.53
2023-05-21T13:32:11.396Z,100880.91
2023-05-21T13:37:14.966Z,100866.56
2023-05-21T13:42:17.253Z,100852.66
2023-05-21T13:47:36.845Z,100845.59
2023-05-21T13:52:50.532Z,100839.19
2023-05-21T13:57:52.726Z,100840.16
2023-05-21T14:02:55.285Z,100834.88
2023-05-21T14:08:04.545Z,100834.88
2023-05-21T14:13:19.057Z,100836.81
2023-05-21T14:18:22.480Z,100838.22
2023-05-21T14:23:38.884Z,100835.53
2023-05-21T14:28:41.553Z,100834.47
2023-05-21T14:33:46.065Z,100822.72
2023-05-21T14:38:53.468Z,100828.94
2023-05-21T14:44:00.150Z,100812.03
2023-05-21T14:49:05.726Z,100819.09
2023-05-21T14:54:12.069Z,100823.34
2023-05-21T14:59:22.036Z,100819.38
2023-05-21T15:04:24.695Z,100821.00
2023-05-21T15:09:29.164Z,100810.72
2023-05-21T15:14:41.602Z,100819.75
2023-05-21T15:19:44.035Z,100820.34
2023-05-21T15:24:47.824Z,100819.44
2023-05-21T15:29:52.014Z,100816.28
2023-05-21T15:34:56.665Z,100817.03
2023-05-21T15:39:59.306Z,100813.47
2023-05-21T15:45:01.600Z,100818.84
2023-05-21T15:50:05.093Z,100808.75
2023-05-21T15:55:07.503Z,100814.25
2023-05-21T16:00:10.840Z,100812.38
2023-05-21T16:05:13.052Z,100815.72
2023-05-21T16:10:16.286Z,100806.28
2023-05-21T16:15:19.990Z,100812.53
2023-05-21T16:20:23.553Z,100806.69
2023-05-21T16:25:25.977Z,100812.34
2023-05-21T16:30:28.370Z,100818.00
2023-05-21T16:35:32.381Z,100806.25
2023-05-21T16:40:34.494Z,100805.19
2023-05-21T16:45:43.981Z,100789.22
2023-05-21T16:50:47.618Z,100796.66
2023-05-21T16:55:49.858Z,100804.94
2023-05-21T17:00:51.998Z,100806.84
2023-05-21T17:05:55.924Z,100798.66
2023-05-21T17:10:59.692Z,100796.59
2023-05-21T17:16:03.829Z,100801.69
2023-05-21T17:21:06.128Z,100806.34
2023-05-21T17:26:23.026Z,100803.13
2023-05-21T17:31:25.609Z,100807.88
2023-05-21T17:36:32.598Z,100808.81
2023-05-21T17:41:42.109Z,100811.31
2023-05-21T17:46:47.778Z,100821.16
2023-05-21T17:51:55.547Z,100816.56
2023-05-21T17:56:58.168Z,100822.53
2023-05-21T18:02:02.240Z,100816.00
2023-05-21T18:07:04.807Z,100812.81
2023-05-21T18:12:10.600Z,100815.16
2023-05-21T18:17:13.906Z,100822.00
2023-05-21T18:22:20.247Z,100810.63
2023-05-21T18:27:24.483Z,100820.59
2023-05-21T18:32:27.211Z,100815.66
2023-05-21T18:37:37.995Z,100819.94
2023-05-21T18:42:47.379Z,100819.00
2023-05-21T18:47:50.303Z,100802.09
2023-05-21T18:53:06.839Z,100806.56
2023-05-21T18:58:10.992Z,100815.66
2023-05-21T19:03:13.334Z,100807.72
2023-05-21T19:08:17.620Z,100813.84
2023-05-21T19:13:20.123Z,100814.81
2023-05-21T19:18:26.690Z,100824.53
2023-05-21T19:23:29.535Z,100813.75
2023-05-21T19:28:34.771Z,100818.25
2023-05-21T19:33:37.058Z,100806.69
2023-05-21T19:38:41.594Z,100813.75
2023-05-21T19:43:46.166Z,100818.25
2023-05-21T19:48:51.178Z,100829.91
2023-05-21T19:53:53.980Z,100829.91
2023-05-21T19:58:56.945Z,100827.34
2023-05-21T20:04:01.107Z,100830.03
2023-05-21T20:09:05.366Z,100818.25
2023-05-21T20:14:07.733Z,100818.34
2023-05-21T20:19:11.169Z,100822.84
2023-05-21T20:24:13.918Z,100821.88
2023-05-21T20:29:16.507Z,100817.50
2023-05-21T20:34:22.045Z,100817.50
2023-05-21T20:39:29.861Z,100820.25
2023-05-21T20:44:34.569Z,100819.09
2023-05-21T20:49:42.828Z,100818.91
2023-05-21T20:54:47.164Z,100824.34
2023-05-21T20:59:53.585Z,100820.16
2023-05-21T21:04:57.123Z,100823.50
2023-05-21T21:10:00.599Z,100814.41
2023-05-21T21:15:04.298Z,100826.28
2023-05-21T21:20:07.960Z,100817.41
2023-05-21T21:25:11.929Z,100818.25
2023-05-21T21:30:14.484Z,100818.25
2023-05-21T21:35:17.642Z,100814.72
2023-05-21T21:40:19.917Z,100814.59
2023-05-21T21:45:22.611Z,100814.81
2023-05-21T21:50:25.192Z,100812.16
2023-05-21T21:55:27.804Z,100818.25
2023-05-21T22:00:30.048Z,100822.75
2023-05-21T22:05:33.012Z,100821.88
2023-05-21T22:10:38.570Z,100825.44
2023-05-21T22:15:41.137Z,100824.69
2023-05-21T22:20:44.480Z,100820.84
2023-05-21T22:25:48.540Z,100822.44
2023-05-21T22:30:50.607Z,100822.63
2023-05-21T22:35:55.660Z,100819.09
2023-05-21T22:40:59.392Z,100811.81
2023-05-21T22:46:02.295Z,100812.03
2023-05-21T22:51:05.118Z,100812.66
2023-05-21T22:56:07.974Z,100817.06
2023-05-21T23:01:09.952Z,100810.97
2023-05-21T23:06:12.502Z,100811.63
2023-05-21T23:11:16.188Z,100820.69
2023-05-21T23:16:23.888Z,100825.09
2023-05-21T23:21:30.582Z,100834.97
2023-05-21T23:26:32.907Z,100836.66
2023-05-21T23:31:36.457Z,100838.50
2023-05-21T23:36:38.978Z,100840.19
2023-05-21T23:41:42.444Z,100832.06
2023-05-21T23:46:45.967Z,100836.47
2023-05-21T23:51:51.091Z,100836.47
2023-05-21T23:56:53.466Z,100835.59
